Time;durP1;ratioP1;P1;durP2;ratioP2;P2;SDS_P1;SDS_P2;PMS_P1;PMS_P2;Temp;Humidity;BMP_temperature;BMP_pressure;BME280_temperature;BME280_humidity;BME280_pressure;Samples;Min_cycle;Max_cycle;Signal;HPM_P1;HPM_P2
2022/01/26 00:06:24;;;;;;;95.33;29.67;;;0.50;48.10;;;;;;5070648;28;20908;-68
2022/01/26 00:08:51;;;;;;;100.43;30.97;;;0.50;48.10;;;;;;5064574;28;20930;-67
2022/01/26 00:11:18;;;;;;;101.90;30.90;;;0.50;48.20;;;;;;5066924;28;20487;-64
2022/01/26 00:13:45;;;;;;;96.87;32.60;;;0.50;48.20;;;;;;5067915;28;20500;-65
2022/01/26 00:16:24;;;;;;;94.33;33.07;;;0.60;48.20;;;;;;5066589;28;21045;-68
2022/01/26 00:18:54;;;;;;;96.17;30.80;;;0.60;48.30;;;;;;5057120;28;20456;-67
2022/01/26 00:21:26;;;;;;;97.33;31.97;;;0.60;48.20;;;;;;5069257;28;20923;-65
2022/01/26 00:24:09;;;;;;;101.17;34.67;;;0.70;48.40;;;;;;5060773;28;20542;-68
2022/01/26 00:26:58;;;;;;;100.93;33.47;;;0.70;48.20;;;;;;5067010;28;20493;-68
2022/01/26 00:29:23;;;;;;;89.43;30.47;;;0.70;48.10;;;;;;5058393;28;20520;-64
2022/01/26 00:33:06;;;;;;;95.80;29.83;;;0.70;48.00;;;;;;5067922;28;20477;-68
2022/01/26 00:40:29;;;;;;;93.50;31.10;;;0.80;48.00;;;;;;5064035;28;20444;-67
2022/01/26 00:43:00;;;;;;;97.23;31.67;;;0.70;48.00;;;;;;5061798;28;20559;-66
2022/01/26 00:45:34;;;;;;;94.87;32.57;;;0.80;48.00;;;;;;5055824;28;20950;-66
2022/01/26 00:48:05;;;;;;;102.80;33.80;;;0.80;48.00;;;;;;5068758;28;20485;-65
2022/01/26 00:50:32;;;;;;;95.07;30.57;;;0.80;48.10;;;;;;5068726;28;20453;-65
2022/01/26 00:52:59;;;;;;;96.63;31.27;;;0.80;48.10;;;;;;5069808;28;20847;-67
2022/01/26 00:55:26;;;;;;;105.63;31.67;;;0.80;48.10;;;;;;5068325;28;20469;-65
2022/01/26 00:57:53;;;;;;;101.37;35.97;;;0.80;48.20;;;;;;5066852;28;20511;-67
2022/01/26 01:00:22;;;;;;;95.90;35.00;;;0.80;48.20;;;;;;5065011;28;20932;-67
2022/01/26 01:02:50;;;;;;;101.83;32.53;;;0.80;48.10;;;;;;5069563;28;20849;-65
2022/01/26 01:05:22;;;;;;;99.53;32.70;;;0.80;48.20;;;;;;5061041;28;20477;-65
2022/01/26 01:07:54;;;;;;;101.80;33.30;;;0.80;48.90;;;;;;5060362;28;20473;-65
2022/01/26 01:10:23;;;;;;;93.27;31.70;;;0.80;48.20;;;;;;5064999;28;20454;-67
2022/01/26 01:12:55;;;;;;;93.97;31.70;;;0.80;48.20;;;;;;5066949;28;20481;-65
2022/01/26 01:15:23;;;;;;;102.67;32.33;;;0.80;48.20;;;;;;5069346;28;20511;-64
2022/01/26 01:17:54;;;;;;;94.67;32.57;;;0.80;48.20;;;;;;5064216;28;20483;-64
2022/01/26 01:20:38;;;;;;;98.77;32.50;;;0.80;48.20;;;;;;5068602;28;21193;-65
2022/01/26 01:23:27;;;;;;;101.57;32.00;;;0.80;48.10;;;;;;5063447;28;21108;-66
2022/01/26 01:28:56;;;;;;;89.87;30.40;;;0.80;48.00;;;;;;5061692;28;20587;-67
2022/01/26 01:31:40;;;;;;;98.23;32.83;;;0.80;48.00;;;;;;5067034;28;20473;-67
2022/01/26 01:34:07;;;;;;;96.53;32.20;;;0.80;47.90;;;;;;5061146;28;20449;-68
2022/01/26 01:36:38;;;;;;;95.37;32.13;;;0.80;47.90;;;;;;5058785;28;20477;-65
2022/01/26 01:39:07;;;;;;;100.33;32.50;;;0.80;48.00;;;;;;5068743;28;20998;-67
2022/01/26 01:41:34;;;;;;;109.47;34.67;;;0.80;47.90;;;;;;5068928;28;20463;-65
2022/01/26 01:44:02;;;;;;;102.73;32.70;;;0.80;47.90;;;;;;5061755;28;20457;-65
2022/01/26 01:46:29;;;;;;;102.70;32.30;;;0.80;47.90;;;;;;5065501;28;20476;-66
2022/01/26 01:48:55;;;;;;;98.30;32.30;;;1.30;48.00;;;;;;5065524;28;20728;-66
2022/01/26 01:51:28;;;;;;;107.00;34.67;;;0.80;47.80;;;;;;5067719;28;20824;-66
2022/01/26 01:53:56;;;;;;;95.30;30.90;;;0.80;47.90;;;;;;5060188;28;20916;-64
2022/01/26 01:56:25;;;;;;;99.47;34.40;;;0.70;47.90;;;;;;5058374;28;20556;-66
2022/01/26 01:58:53;;;;;;;102.23;33.60;;;0.70;47.90;;;;;;5063286;28;20461;-64
2022/01/26 02:01:19;;;;;;;92.80;32.93;;;0.70;47.90;;;;;;5065095;28;20481;-67
2022/01/26 02:03:46;;;;;;;98.60;32.00;;;0.70;47.90;;;;;;5062376;28;20460;-65
2022/01/26 02:06:13;;;;;;;93.10;31.03;;;0.70;48.00;;;;;;5068216;28;20480;-66
2022/01/26 02:08:41;;;;;;;104.43;33.70;;;0.70;48.00;;;;;;5061170;28;20477;-67
2022/01/26 02:11:11;;;;;;;96.37;33.67;;;0.60;47.80;;;;;;5063439;28;20458;-67
2022/01/26 02:13:46;;;;;;;96.27;31.07;;;0.60;47.90;;;;;;5061179;28;20481;-66
2022/01/26 02:16:20;;;;;;;93.87;30.40;;;0.60;47.70;;;;;;5062634;28;20481;-67
2022/01/26 02:19:05;;;;;;;98.23;33.37;;;0.60;47.80;;;;;;5060835;28;20506;-66
2022/01/26 02:49:37;;;;;;;97.73;31.40;;;0.20;48.10;;;;;;5061766;28;20527;-65
2022/01/26 02:52:30;;;;;;;92.00;29.37;;;0.50;48.40;;;;;;5061244;28;20474;-65
2022/01/26 02:55:20;;;;;;;102.70;34.97;;;0.20;48.00;;;;;;5061703;28;20579;-67
2022/01/26 02:58:10;;;;;;;98.13;32.13;;;0.20;48.10;;;;;;5057779;28;20462;-66
2022/01/26 03:00:48;;;;;;;89.80;31.37;;;0.10;48.10;;;;;;5060785;28;20477;-67
2022/01/26 03:03:19;;;;;;;101.57;32.17;;;0.10;48.30;;;;;;5064304;28;20488;-66
2022/01/26 03:05:52;;;;;;;93.13;30.30;;;0.20;48.20;;;;;;5063052;28;20453;-65
2022/01/26 03:08:27;;;;;;;98.33;32.63;;;0.10;48.00;;;;;;5065280;28;20507;-65
2022/01/26 03:10:59;;;;;;;98.43;31.60;;;0.10;48.60;;;;;;5065695;28;20501;-67
2022/01/26 03:13:30;;;;;;;93.37;34.23;;;0.10;47.60;;;;;;5063424;28;20559;-65
2022/01/26 03:16:01;;;;;;;97.53;32.33;;;0.00;47.30;;;;;;5070559;28;20548;-65
2022/01/26 03:18:48;;;;;;;94.30;33.30;;;0.00;47.30;;;;;;5069961;28;20445;-65
2022/01/26 03:21:17;;;;;;;89.30;29.10;;;0.10;47.40;;;;;;5067317;28;20448;-68
2022/01/26 03:29:27;;;;;;;96.50;31.60;;;-0.10;47.10;;;;;;5069786;28;20611;-69
2022/01/26 03:34:35;;;;;;;100.93;31.77;;;-0.20;47.10;;;;;;5055751;28;20533;-65
2022/01/26 03:37:06;;;;;;;94.03;32.10;;;-0.20;47.10;;;;;;5066609;28;20465;-66
2022/01/26 03:39:40;;;;;;;92.40;33.77;;;-0.20;47.20;;;;;;5062922;28;20475;-66
2022/01/26 03:42:13;;;;;;;99.57;35.07;;;-0.20;47.10;;;;;;5066547;28;20452;-69
2022/01/26 03:44:40;;;;;;;96.73;31.17;;;-0.30;47.10;;;;;;5067687;28;20463;-65
2022/01/26 03:47:07;;;;;;;90.00;32.00;;;-0.30;47.20;;;;;;5068043;28;20473;-68
2022/01/26 03:49:35;;;;;;;98.07;32.80;;;-0.30;47.30;;;;;;5061809;28;20481;-64
2022/01/26 03:52:01;;;;;;;106.60;36.03;;;-0.30;47.50;;;;;;5069843;28;20536;-68
2022/01/26 03:54:28;;;;;;;105.37;32.73;;;-0.20;47.70;;;;;;5066518;28;20469;-67
2022/01/26 03:56:55;;;;;;;104.90;32.50;;;-0.20;47.70;;;;;;5070368;28;20481;-66
2022/01/26 03:59:23;;;;;;;90.27;31.33;;;-0.20;47.90;;;;;;5069758;28;20457;-66
2022/01/26 04:01:50;;;;;;;91.37;30.03;;;-0.10;47.80;;;;;;5069613;28;21052;-65
2022/01/26 04:04:17;;;;;;;91.60;32.27;;;-0.10;47.60;;;;;;5060583;28;20491;-64
2022/01/26 04:06:44;;;;;;;104.33;35.40;;;-0.10;47.70;;;;;;5067711;28;20495;-69
2022/01/26 04:09:13;;;;;;;92.87;30.60;;;-0.10;47.60;;;;;;5066724;28;20516;-66
2022/01/26 04:11:42;;;;;;;99.03;31.60;;;0.00;47.50;;;;;;5065822;28;20547;-65
2022/01/26 04:14:12;;;;;;;88.00;29.70;;;0.00;47.50;;;;;;5064736;28;20449;-63
2022/01/26 04:16:42;;;;;;;102.13;32.43;;;0.00;47.60;;;;;;5064453;28;20512;-65
2022/01/26 04:19:10;;;;;;;91.87;30.90;;;0.00;47.50;;;;;;5068721;28;20540;-65
2022/01/26 04:21:50;;;;;;;94.77;30.43;;;0.00;47.50;;;;;;5064451;28;20453;-65
2022/01/26 04:24:21;;;;;;;94.00;30.57;;;0.00;47.60;;;;;;5057662;28;20460;-66
2022/01/26 04:26:52;;;;;;;91.77;33.57;;;0.00;47.70;;;;;;5078664;22;20479;-62
2022/01/26 04:29:24;;;;;;;97.23;33.33;;;0.10;47.70;;;;;;5029136;28;20479;-62
2022/01/26 04:31:52;;;;;;;98.60;31.43;;;0.00;47.80;;;;;;5035721;28;20481;-61
2022/01/26 04:34:20;;;;;;;92.83;29.97;;;0.10;47.90;;;;;;5029759;28;20458;-62
2022/01/26 04:36:52;;;;;;;91.10;28.67;;;0.10;47.90;;;;;;5030264;28;20577;-62
2022/01/26 04:39:23;;;;;;;95.03;32.00;;;0.10;47.80;;;;;;5029056;28;20463;-62
2022/01/26 04:41:54;;;;;;;103.53;33.20;;;0.10;47.80;;;;;;5042128;28;20459;-62
2022/01/26 04:44:23;;;;;;;105.20;32.07;;;0.10;47.80;;;;;;5025677;28;20466;-62
2022/01/26 04:46:52;;;;;;;99.40;31.23;;;0.10;47.80;;;;;;5025133;28;20492;-62
2022/01/26 04:49:20;;;;;;;89.27;28.97;;;0.10;47.80;;;;;;5033774;28;20477;-62
2022/01/26 04:51:47;;;;;;;92.23;30.80;;;0.10;47.80;;;;;;5024223;28;20462;-62
2022/01/26 04:54:14;;;;;;;94.57;30.47;;;0.10;47.80;;;;;;5030151;28;21012;-61
2022/01/26 04:56:41;;;;;;;93.50;33.33;;;0.10;47.80;;;;;;5028171;28;20482;-62
2022/01/26 04:59:08;;;;;;;98.90;33.67;;;0.10;47.80;;;;;;5030220;28;20451;-62
2022/01/26 05:01:35;;;;;;;97.43;35.77;;;0.10;47.90;;;;;;5020691;28;20837;-62
2022/01/26 05:04:04;;;;;;;88.27;32.20;;;0.10;47.90;;;;;;5028218;28;20465;-61
2022/01/26 05:06:30;;;;;;;94.97;31.17;;;0.10;48.00;;;;;;5031707;28;20455;-62
2022/01/26 05:08:57;;;;;;;98.33;31.13;;;0.10;47.80;;;;;;5026189;28;20515;-62
2022/01/26 05:11:32;;;;;;;97.10;32.53;;;0.10;47.90;;;;;;5030110;28;20548;-62
2022/01/26 05:13:59;;;;;;;99.43;32.03;;;0.10;47.80;;;;;;5026154;28;20471;-62
2022/01/26 05:16:26;;;;;;;90.80;32.07;;;0.10;47.90;;;;;;5031165;28;20545;-61
2022/01/26 05:18:54;;;;;;;97.57;32.50;;;0.10;48.00;;;;;;5026576;28;20455;-63
2022/01/26 05:21:22;;;;;;;100.00;32.30;;;0.10;48.00;;;;;;5030221;28;20533;-63
2022/01/26 05:23:49;;;;;;;94.10;33.07;;;0.10;48.60;;;;;;5024904;28;20463;-62
2022/01/26 05:26:15;;;;;;;108.93;32.30;;;0.10;47.80;;;;;;5029704;28;20573;-62
2022/01/26 05:28:42;;;;;;;93.03;31.37;;;0.10;47.80;;;;;;5027417;28;20491;-62
2022/01/26 05:31:09;;;;;;;96.63;31.00;;;0.10;48.00;;;;;;5029041;28;21146;-62
2022/01/26 05:33:36;;;;;;;105.60;32.50;;;0.10;48.00;;;;;;5028795;28;20459;-63
2022/01/26 05:36:03;;;;;;;94.03;32.70;;;0.10;47.90;;;;;;5028644;28;20462;-63
2022/01/26 05:38:31;;;;;;;94.60;30.80;;;0.10;48.00;;;;;;5028435;28;20479;-63
2022/01/26 05:41:01;;;;;;;99.63;32.67;;;0.10;47.90;;;;;;5018332;28;20462;-62
2022/01/26 05:43:28;;;;;;;93.07;30.17;;;0.10;47.80;;;;;;5031725;28;20457;-63
2022/01/26 05:45:59;;;;;;;99.57;31.90;;;0.10;47.90;;;;;;5028368;28;20466;-63
2022/01/26 05:48:25;;;;;;;95.03;33.53;;;0.10;47.90;;;;;;5029256;28;20565;-63
2022/01/26 05:50:54;;;;;;;89.23;30.00;;;0.10;47.90;;;;;;5021884;28;20455;-63
2022/01/26 05:53:21;;;;;;;80.60;28.40;;;0.10;47.90;;;;;;5028416;28;20466;-63
2022/01/26 05:55:53;;;;;;;97.47;29.90;;;0.10;47.90;;;;;;5029599;28;20489;-62
2022/01/26 05:58:20;;;;;;;93.90;30.10;;;0.10;47.80;;;;;;5029177;28;20487;-62
2022/01/26 06:00:47;;;;;;;94.37;32.07;;;0.10;47.80;;;;;;5020509;28;20466;-62
2022/01/26 06:03:14;;;;;;;93.30;29.70;;;0.40;47.70;;;;;;5029101;28;20489;-62
2022/01/26 06:05:40;;;;;;;96.43;30.30;;;0.10;47.60;;;;;;5029427;28;20836;-62
2022/01/26 06:08:08;;;;;;;93.10;29.37;;;0.20;47.40;;;;;;5029333;28;20490;-62
2022/01/26 06:10:35;;;;;;;86.57;29.77;;;0.20;47.40;;;;;;5027774;28;20482;-63
2022/01/26 06:13:03;;;;;;;90.63;31.83;;;0.10;47.20;;;;;;5029089;28;20988;-60
2022/01/26 06:15:30;;;;;;;81.83;28.60;;;0.10;47.20;;;;;;5029404;28;20469;-60
2022/01/26 06:17:57;;;;;;;92.40;30.53;;;0.10;47.80;;;;;;5028996;28;20486;-59
2022/01/26 06:20:24;;;;;;;88.47;29.83;;;0.10;47.10;;;;;;5038739;28;20542;-60
2022/01/26 06:22:50;;;;;;;90.50;30.07;;;0.10;47.10;;;;;;5027459;28;20463;-60
2022/01/26 06:25:17;;;;;;;91.63;29.30;;;0.50;47.20;;;;;;5028624;28;20942;-60
2022/01/26 06:27:45;;;;;;;93.90;32.63;;;0.10;47.00;;;;;;5028833;28;20520;-60
2022/01/26 06:30:14;;;;;;;92.87;29.90;;;0.10;46.90;;;;;;5044609;28;20528;-60
2022/01/26 06:32:41;;;;;;;95.57;33.40;;;0.10;46.90;;;;;;5040740;28;20463;-60
2022/01/26 06:35:09;;;;;;;95.40;31.20;;;0.10;46.90;;;;;;5020316;28;20466;-60
2022/01/26 06:37:36;;;;;;;84.93;29.67;;;0.20;46.90;;;;;;5028657;28;20511;-60
2022/01/26 06:40:04;;;;;;;90.10;30.10;;;0.20;46.70;;;;;;5043669;28;20454;-60
2022/01/26 06:42:37;;;;;;;86.47;29.90;;;0.20;46.70;;;;;;5045826;28;20465;-60
2022/01/26 06:45:16;;;;;;;97.87;32.00;;;0.20;46.50;;;;;;5019975;28;20443;-60
2022/01/26 06:47:56;;;;;;;89.30;29.67;;;0.20;46.40;;;;;;5028054;28;20475;-60
2022/01/26 06:50:23;;;;;;;88.40;30.70;;;0.20;46.20;;;;;;5028388;28;20837;-59
2022/01/26 06:52:50;;;;;;;97.83;30.87;;;0.20;46.20;;;;;;5027448;28;20474;-60
2022/01/26 06:55:17;;;;;;;90.60;28.37;;;0.10;46.10;;;;;;5028234;28;20459;-60
2022/01/26 06:57:44;;;;;;;84.07;26.97;;;0.10;46.10;;;;;;5028053;28;20490;-60
2022/01/26 07:00:13;;;;;;;87.37;29.50;;;0.10;46.20;;;;;;5044322;28;20465;-60
2022/01/26 07:02:40;;;;;;;96.13;29.53;;;0.10;46.20;;;;;;5038227;28;20459;-60
2022/01/26 07:05:09;;;;;;;93.23;28.00;;;0.00;46.20;;;;;;5019092;28;20546;-60
2022/01/26 07:07:36;;;;;;;93.03;28.67;;;0.00;46.20;;;;;;5028252;28;20474;-59
2022/01/26 07:10:04;;;;;;;93.60;31.53;;;0.00;46.10;;;;;;5028374;28;20484;-60
2022/01/26 07:12:31;;;;;;;99.53;31.53;;;0.00;46.10;;;;;;5025958;28;20493;-60
2022/01/26 07:23:12;;;;;;;88.10;28.30;;;0.00;46.30;;;;;;5026615;28;20536;-60
2022/01/26 07:25:39;;;;;;;91.93;29.77;;;0.00;46.40;;;;;;5027364;28;20463;-60
2022/01/26 07:28:06;;;;;;;76.60;25.87;;;0.00;46.20;;;;;;5029387;28;20483;-60
2022/01/26 07:30:35;;;;;;;87.17;25.87;;;0.00;46.20;;;;;;5027430;28;20470;-60
2022/01/26 07:33:02;;;;;;;82.63;28.00;;;0.00;46.30;;;;;;5027524;28;20544;-60
2022/01/26 07:35:30;;;;;;;79.43;26.50;;;0.00;46.30;;;;;;5027143;28;20463;-60
2022/01/26 07:37:59;;;;;;;94.03;28.07;;;0.00;46.30;;;;;;5020745;28;20475;-60
2022/01/26 07:40:26;;;;;;;81.90;27.27;;;0.00;46.30;;;;;;5007883;28;20447;-61
2022/01/26 07:42:52;;;;;;;81.10;26.37;;;0.10;46.20;;;;;;5034794;28;20458;-60
2022/01/26 07:45:19;;;;;;;82.83;26.23;;;0.10;46.00;;;;;;5030004;28;20459;-60
2022/01/26 07:47:46;;;;;;;88.70;27.90;;;0.10;45.90;;;;;;5022304;28;20475;-61
2022/01/26 07:50:15;;;;;;;85.20;29.10;;;0.20;45.50;;;;;;5026155;28;20542;-59
2022/01/26 07:52:43;;;;;;;85.70;27.47;;;0.20;45.40;;;;;;5029450;28;20902;-60
2022/01/26 07:55:15;;;;;;;97.23;28.57;;;0.20;45.30;;;;;;5025814;28;20841;-60
2022/01/26 07:57:43;;;;;;;82.90;28.90;;;0.20;45.30;;;;;;5026801;28;20507;-60
2022/01/26 08:00:11;;;;;;;82.77;27.67;;;0.30;45.60;;;;;;5028219;28;21009;-59
2022/01/26 08:02:38;;;;;;;87.33;28.27;;;0.30;45.60;;;;;;5037427;28;20462;-60
2022/01/26 08:05:06;;;;;;;95.20;28.83;;;0.20;45.40;;;;;;5036300;28;21010;-60
2022/01/26 08:07:32;;;;;;;87.83;29.43;;;0.30;45.60;;;;;;5021812;28;20482;-61
2022/01/26 08:10:01;;;;;;;84.50;26.90;;;0.40;45.40;;;;;;5034503;28;20479;-60
2022/01/26 08:12:27;;;;;;;91.90;30.30;;;0.40;45.30;;;;;;5036510;28;20861;-60
2022/01/26 08:14:54;;;;;;;85.07;28.30;;;0.40;45.30;;;;;;5030688;28;20458;-60
2022/01/26 08:17:21;;;;;;;85.80;28.37;;;0.40;45.20;;;;;;5025995;28;20518;-61
2022/01/26 08:19:51;;;;;;;81.87;27.37;;;0.50;45.20;;;;;;5026091;28;20473;-60
2022/01/26 08:22:19;;;;;;;76.40;26.53;;;0.50;45.20;;;;;;5031169;28;20461;-61
2022/01/26 08:24:46;;;;;;;82.73;27.33;;;0.60;45.10;;;;;;5012015;28;20455;-59
2022/01/26 08:27:16;;;;;;;84.50;27.67;;;0.60;45.00;;;;;;5029539;28;20564;-60
2022/01/26 08:29:47;;;;;;;77.13;26.47;;;0.70;44.90;;;;;;5030210;28;20944;-60
2022/01/26 08:32:14;;;;;;;80.97;26.50;;;0.70;44.80;;;;;;5030310;28;20471;-60
2022/01/26 08:34:41;;;;;;;80.00;26.83;;;0.70;44.80;;;;;;5030243;28;20451;-60
2022/01/26 08:37:08;;;;;;;75.17;24.17;;;0.80;44.60;;;;;;5029512;28;20482;-59
2022/01/26 08:39:36;;;;;;;77.87;25.47;;;0.80;44.50;;;;;;5030896;28;20462;-59
2022/01/26 08:42:05;;;;;;;78.27;27.03;;;0.80;44.40;;;;;;5030509;28;20459;-60
2022/01/26 08:44:34;;;;;;;76.50;25.40;;;0.90;44.50;;;;;;5030861;28;20517;-60
2022/01/26 08:47:00;;;;;;;82.30;25.53;;;0.90;44.50;;;;;;5030288;28;20475;-60
2022/01/26 08:49:27;;;;;;;79.03;27.13;;;0.90;44.40;;;;;;5025243;28;20464;-60
2022/01/26 08:51:54;;;;;;;76.20;25.50;;;1.00;44.30;;;;;;5025210;28;20530;-60
2022/01/26 08:54:22;;;;;;;81.03;26.43;;;1.10;43.90;;;;;;5031627;28;20459;-60
2022/01/26 08:56:50;;;;;;;74.13;24.63;;;1.20;43.50;;;;;;5030129;28;20852;-61
2022/01/26 08:59:17;;;;;;;78.47;27.77;;;1.20;43.50;;;;;;5028077;28;20470;-60
2022/01/26 09:01:45;;;;;;;84.40;28.60;;;1.30;43.60;;;;;;5022375;28;20486;-60
2022/01/26 09:04:12;;;;;;;72.50;25.40;;;1.30;43.50;;;;;;5028038;28;20846;-60
2022/01/26 09:06:49;;;;;;;81.03;26.40;;;1.40;43.30;;;;;;5028953;28;20462;-60
2022/01/26 09:09:16;;;;;;;78.50;25.80;;;1.50;42.50;;;;;;5027871;28;20821;-60
2022/01/26 09:11:43;;;;;;;76.83;26.30;;;1.60;42.50;;;;;;5028931;28;20461;-60
2022/01/26 09:14:16;;;;;;;79.97;26.73;;;1.60;42.20;;;;;;5031109;28;20473;-60
2022/01/26 09:16:45;;;;;;;78.07;26.47;;;1.70;42.50;;;;;;5023639;28;20897;-60
2022/01/26 09:19:24;;;;;;;82.23;27.77;;;1.70;42.40;;;;;;5026721;28;20466;-60
2022/01/26 09:21:50;;;;;;;74.07;24.10;;;1.80;42.30;;;;;;5029341;28;20505;-59
2022/01/26 09:24:17;;;;;;;78.40;26.17;;;1.80;42.20;;;;;;5029897;28;20462;-60
2022/01/26 09:26:44;;;;;;;75.37;26.00;;;1.90;41.90;;;;;;5029386;28;20475;-61
2022/01/26 09:29:11;;;;;;;73.10;26.73;;;1.90;41.90;;;;;;5028688;28;20965;-59
2022/01/26 09:31:38;;;;;;;72.60;27.20;;;2.00;41.90;;;;;;5021240;28;20841;-59
2022/01/26 09:34:06;;;;;;;74.00;25.67;;;2.10;41.90;;;;;;5029579;28;20465;-58
2022/01/26 09:36:33;;;;;;;72.50;27.50;;;2.10;41.70;;;;;;5028176;28;20459;-58
2022/01/26 09:39:00;;;;;;;73.87;26.87;;;2.20;42.20;;;;;;5029939;28;20459;-59
2022/01/26 09:41:27;;;;;;;78.17;26.67;;;2.20;41.50;;;;;;5028142;28;20459;-58
2022/01/26 09:43:54;;;;;;;77.47;27.30;;;2.30;41.50;;;;;;5029537;28;20455;-58
2022/01/26 09:46:21;;;;;;;77.30;28.07;;;2.40;41.30;;;;;;5029251;28;20831;-61
2022/01/26 09:48:48;;;;;;;74.83;27.27;;;2.50;41.30;;;;;;5029128;28;20455;-60
2022/01/26 09:51:19;;;;;;;75.60;28.03;;;2.70;41.30;;;;;;5026272;28;20471;-60
2022/01/26 09:53:46;;;;;;;78.73;28.70;;;2.80;41.10;;;;;;5024539;28;20450;-60
2022/01/26 09:56:12;;;;;;;75.00;27.27;;;3.00;40.90;;;;;;5029091;28;20459;-59
2022/01/26 09:58:39;;;;;;;76.93;30.00;;;3.10;40.70;;;;;;5029208;28;20494;-61
2022/01/26 10:01:06;;;;;;;79.93;28.30;;;3.40;40.20;;;;;;5027129;28;20493;-61
2022/01/26 10:03:35;;;;;;;79.40;30.50;;;3.90;40.00;;;;;;5022167;28;20463;-58
2022/01/26 10:06:02;;;;;;;82.60;31.30;;;4.30;38.90;;;;;;5028462;28;20479;-59
2022/01/26 10:09:13;;;;;;;75.93;27.10;;;4.70;37.60;;;;;;5027779;28;20482;-59
2022/01/26 10:17:25;;;;;;;74.10;28.30;;;5.00;35.30;;;;;;5028600;28;20530;-61
2022/01/26 10:19:57;;;;;;;75.97;28.40;;;5.00;35.60;;;;;;5028030;28;21097;-61
2022/01/26 10:22:31;;;;;;;74.70;27.60;;;5.00;35.10;;;;;;5027649;28;20576;-59
2022/01/26 10:25:10;;;;;;;71.63;27.77;;;5.00;34.90;;;;;;5028292;28;20451;-59
2022/01/26 10:27:39;;;;;;;77.20;27.53;;;5.10;34.90;;;;;;5063216;23;20477;-68
2022/01/26 10:30:08;;;;;;;69.57;25.60;;;5.60;36.30;;;;;;5067392;28;20476;-68
2022/01/26 10:32:35;;;;;;;69.53;25.13;;;7.50;35.80;;;;;;5067964;28;20458;-69
2022/01/26 10:35:05;;;;;;;67.30;27.03;;;10.40;28.20;;;;;;5048884;28;20468;-68
2022/01/26 10:37:32;;;;;;;62.90;25.00;;;12.60;21.80;;;;;;5048700;28;20462;-69
2022/01/26 10:40:17;;;;;;;62.67;25.77;;;14.30;17.50;;;;;;5047645;28;20824;-69
2022/01/26 10:42:59;;;;;;;66.00;25.47;;;15.80;13.40;;;;;;5048230;28;20956;-69
2022/01/26 10:45:52;;;;;;;64.43;26.50;;;16.60;10.20;;;;;;5048207;28;20516;-70
2022/01/26 10:48:30;;;;;;;59.87;24.40;;;15.70;9.60;;;;;;5049023;28;20466;-69
2022/01/26 10:51:22;;;;;;;61.30;25.53;;;14.70;9.80;;;;;;5048820;28;20485;-69
2022/01/26 10:53:57;;;;;;;61.00;26.40;;;13.90;11.20;;;;;;5048753;28;20544;-69
2022/01/26 10:56:25;;;;;;;66.23;27.73;;;13.30;13.00;;;;;;5047667;28;20468;-70
2022/01/26 10:58:52;;;;;;;65.57;25.60;;;13.30;14.30;;;;;;5048822;28;20454;-69
2022/01/26 11:01:19;;;;;;;61.07;25.57;;;14.40;13.40;;;;;;5047513;28;20466;-70
2022/01/26 11:03:47;;;;;;;66.27;27.17;;;15.30;11.60;;;;;;5048582;28;20485;-70
2022/01/26 11:06:18;;;;;;;61.27;27.87;;;15.90;11.70;;;;;;5048662;28;20810;-69
2022/01/26 11:08:46;;;;;;;68.77;25.50;;;17.00;9.80;;;;;;5048244;28;20458;-70
2022/01/26 11:11:19;;;;;;;56.90;24.80;;;18.00;8.20;;;;;;5047171;28;20572;-70
2022/01/26 11:13:48;;;;;;;56.00;24.87;;;19.10;7.40;;;;;;5048060;28;20982;-69
2022/01/26 11:16:16;;;;;;;53.20;22.97;;;19.70;6.00;;;;;;5048349;28;20461;-70
2022/01/26 11:18:51;;;;;;;53.67;23.73;;;20.20;5.50;;;;;;5048029;28;20490;-69
2022/01/26 11:21:33;;;;;;;54.80;23.30;;;20.70;4.10;;;;;;5047063;28;20458;-69
2022/01/26 11:24:08;;;;;;;52.57;23.43;;;21.10;3.50;;;;;;5048026;28;20517;-71
2022/01/26 11:26:38;;;;;;;51.00;22.90;;;21.40;2.80;;;;;;5048408;28;20464;-70
2022/01/26 11:29:16;;;;;;;49.57;20.00;;;21.50;2.70;;;;;;5047757;28;20469;-69
2022/01/26 11:31:42;;;;;;;50.40;20.60;;;21.60;2.10;;;;;;5046010;28;20470;-71
2022/01/26 11:34:11;;;;;;;46.33;19.07;;;21.50;1.60;;;;;;5048557;28;20478;-70
2022/01/26 11:36:41;;;;;;;48.67;19.40;;;21.20;2.00;;;;;;5051866;28;20518;-70
2022/01/26 11:42:17;;;;;;;47.33;19.00;;;20.80;2.60;;;;;;5050025;28;20449;-70
2022/01/26 11:45:06;;;;;;;50.83;20.07;;;20.60;3.40;;;;;;5051411;28;20486;-69
2022/01/26 11:47:33;;;;;;;47.10;20.83;;;20.40;3.90;;;;;;5051531;28;20457;-70
2022/01/26 11:50:07;;;;;;;48.37;20.00;;;20.20;4.00;;;;;;5051291;28;20458;-69
2022/01/26 11:52:37;;;;;;;47.70;18.67;;;19.90;4.00;;;;;;5051150;28;20473;-71
2022/01/26 11:55:10;;;;;;;51.27;20.33;;;19.50;4.70;;;;;;5051481;28;20553;-69
2022/01/26 11:57:43;;;;;;;49.03;20.03;;;19.10;5.00;;;;;;5051974;28;20458;-70
2022/01/26 12:00:18;;;;;;;47.50;19.80;;;18.70;5.60;;;;;;5051300;28;20453;-70
2022/01/26 12:02:53;;;;;;;49.30;20.67;;;18.30;5.90;;;;;;5050192;28;20480;-70
2022/01/26 12:05:23;;;;;;;49.13;20.67;;;18.00;6.60;;;;;;5051712;28;20489;-69
2022/01/26 12:07:53;;;;;;;47.53;19.30;;;17.70;7.60;;;;;;5051270;28;20462;-69
2022/01/26 12:10:27;;;;;;;47.13;18.80;;;17.60;7.90;;;;;;5051188;28;20519;-69
2022/01/26 12:13:02;;;;;;;47.13;18.83;;;17.30;7.70;;;;;;5049878;28;20988;-70
2022/01/26 12:15:33;;;;;;;48.47;19.30;;;17.20;8.50;;;;;;5051369;28;20961;-70
2022/01/26 12:18:16;;;;;;;51.13;20.87;;;17.10;8.80;;;;;;5051144;28;20865;-70
2022/01/26 12:32:19;;;;;;;48.90;18.77;;;15.70;9.60;;;;;;5050066;28;20566;-71
2022/01/26 12:34:53;;;;;;;49.80;20.23;;;15.50;9.90;;;;;;5049356;28;20990;-69
2022/01/26 12:37:34;;;;;;;48.00;18.23;;;15.20;10.10;;;;;;5050795;28;20736;-69
2022/01/26 12:43:06;;;;;;;50.67;19.77;;;14.80;10.80;;;;;;5049992;28;20465;-68
2022/01/26 12:45:34;;;;;;;53.30;20.13;;;14.60;11.20;;;;;;5048564;28;20942;-71
2022/01/26 12:48:02;;;;;;;53.87;21.37;;;14.40;11.50;;;;;;5050161;28;20493;-70
2022/01/26 12:50:29;;;;;;;51.10;19.43;;;14.30;11.70;;;;;;5050395;28;20454;-71
2022/01/26 12:52:57;;;;;;;50.10;19.77;;;14.10;12.10;;;;;;5050500;28;20458;-70
2022/01/26 12:55:26;;;;;;;51.07;19.30;;;13.90;12.20;;;;;;5049684;28;20923;-69
2022/01/26 12:57:54;;;;;;;50.10;18.53;;;13.70;12.40;;;;;;5045669;28;21006;-70
2022/01/26 13:00:23;;;;;;;52.37;20.00;;;13.60;12.70;;;;;;5049584;28;20454;-69
2022/01/26 13:02:51;;;;;;;52.87;19.50;;;13.50;13.00;;;;;;5049816;28;20556;-69
2022/01/26 13:05:26;;;;;;;52.80;19.43;;;13.30;13.30;;;;;;5049650;28;20462;-72
2022/01/26 13:08:03;;;;;;;48.00;17.73;;;13.10;13.40;;;;;;5049632;28;20494;-69
2022/01/26 13:10:30;;;;;;;52.37;19.63;;;12.90;13.70;;;;;;5049943;28;20835;-70
2022/01/26 13:13:08;;;;;;;53.00;20.10;;;12.80;14.10;;;;;;5046972;28;20485;-70
2022/01/26 13:15:41;;;;;;;54.37;18.83;;;12.70;14.60;;;;;;5039447;28;20472;-70
2022/01/26 13:18:20;;;;;;;51.73;18.97;;;12.60;14.80;;;;;;5050171;28;20462;-70
2022/01/26 13:21:03;;;;;;;50.57;19.37;;;12.50;15.20;;;;;;5049871;28;20458;-69
2022/01/26 13:23:37;;;;;;;50.80;18.07;;;12.50;15.50;;;;;;5048516;28;20483;-71
2022/01/26 13:26:15;;;;;;;53.03;19.53;;;12.40;15.70;;;;;;5039848;28;20462;-70
2022/01/26 13:28:56;;;;;;;51.37;18.93;;;12.20;15.90;;;;;;5050239;28;20476;-69
2022/01/26 13:32:01;;;;;;;54.60;18.80;;;12.10;16.30;;;;;;5040171;28;20544;-70
2022/01/26 13:37:29;;;;;;;67.67;29.43;;;11.70;16.70;;;;;;5037555;28;20489;-70
2022/01/26 13:40:09;;;;;;;76.93;28.10;;;11.40;17.10;;;;;;5049944;28;20465;-71
2022/01/26 13:51:10;;;;;;;76.60;30.53;;;10.10;19.50;;;;;;5028667;28;20524;-69
2022/01/26 13:53:49;;;;;;;74.57;30.53;;;9.80;20.00;;;;;;5028976;28;20573;-70
2022/01/26 13:56:20;;;;;;;87.57;30.80;;;9.50;20.70;;;;;;5031187;28;20543;-69
2022/01/26 13:58:57;;;;;;;73.90;30.10;;;9.40;21.30;;;;;;5048412;28;20819;-69
2022/01/26 14:01:24;;;;;;;79.07;28.10;;;9.20;22.00;;;;;;5047827;28;20458;-69
2022/01/26 14:03:54;;;;;;;72.97;30.43;;;8.90;22.40;;;;;;5048364;28;20477;-69
2022/01/26 14:06:21;;;;;;;77.70;30.37;;;8.70;23.00;;;;;;5048447;28;20458;-69
2022/01/26 14:08:50;;;;;;;78.00;30.00;;;8.60;23.70;;;;;;5048166;28;20462;-70
2022/01/26 14:11:17;;;;;;;77.97;31.80;;;8.50;24.20;;;;;;5048863;28;20775;-70
2022/01/26 14:13:45;;;;;;;75.57;30.30;;;8.30;24.40;;;;;;5048384;28;20500;-69
2022/01/26 14:16:16;;;;;;;79.37;32.77;;;8.20;24.90;;;;;;5048396;28;20865;-69
2022/01/26 14:21:33;;;;;;;78.20;30.17;;;8.00;25.40;;;;;;5047350;28;20535;-68
2022/01/26 14:26:45;;;;;;;78.70;33.03;;;7.70;26.40;;;;;;5043241;28;20486;-70
2022/01/26 14:29:21;;;;;;;75.43;31.83;;;7.60;26.60;;;;;;5047810;28;20470;-70